createdAt,value
2023-09-06T00:00:13.447Z,18.90
2023-09-06T00:02:41.236Z,19.00
2023-09-06T00:05:09.430Z,19.00
2023-09-06T00:07:37.260Z,19.00
2023-09-06T00:10:05.425Z,18.90
2023-09-06T00:12:33.260Z,19.00
2023-09-06T00:15:01.027Z,19.00
2023-09-06T00:17:30.137Z,19.00
2023-09-06T00:19:57.883Z,19.00
2023-09-06T00:22:25.646Z,19.00
2023-09-06T00:24:53.418Z,18.90
2023-09-06T00:27:21.247Z,18.90
2023-09-06T00:29:48.959Z,18.90
2023-09-06T00:32:16.812Z,18.90
2023-09-06T00:34:49.662Z,18.90
2023-09-06T00:37:17.410Z,18.90
2023-09-06T00:39:46.254Z,18.90
2023-09-06T00:42:14.058Z,18.90
2023-09-06T00:44:41.979Z,18.90
2023-09-06T00:47:10.135Z,18.80
2023-09-06T00:49:38.034Z,18.80
2023-09-06T00:52:07.465Z,18.80
2023-09-06T00:54:35.849Z,18.70
2023-09-06T00:57:03.879Z,18.80
2023-09-06T00:59:32.646Z,18.70
2023-09-06T01:02:00.535Z,18.70
2023-09-06T01:04:28.568Z,18.70
2023-09-06T01:07:00.555Z,18.60
2023-09-06T01:09:30.524Z,18.60
2023-09-06T01:11:58.356Z,18.60
2023-09-06T01:14:26.122Z,18.60
2023-09-06T01:16:57.020Z,18.50
2023-09-06T01:19:28.179Z,18.40
2023-09-06T01:22:07.701Z,18.40
2023-09-06T01:24:37.328Z,18.30
2023-09-06T01:27:06.587Z,18.30
2023-09-06T01:29:35.978Z,18.30
2023-09-06T01:32:06.247Z,18.30
2023-09-06T01:34:34.133Z,18.20
2023-09-06T01:37:01.921Z,18.20
2023-09-06T01:39:29.844Z,18.20
2023-09-06T01:41:58.975Z,18.10
2023-09-06T01:44:28.151Z,18.10
2023-09-06T01:46:56.114Z,18.00
2023-09-06T01:49:24.007Z,18.00
2023-09-06T01:51:51.857Z,17.90
2023-09-06T01:54:19.808Z,17.90
2023-09-06T01:56:47.572Z,17.80
2023-09-06T01:59:16.939Z,17.80
2023-09-06T02:01:44.780Z,17.70
2023-09-06T02:04:12.692Z,17.70
2023-09-06T02:06:40.554Z,17.60
2023-09-06T02:09:08.816Z,17.60
2023-09-06T02:11:36.575Z,17.60
2023-09-06T02:14:04.473Z,17.50
2023-09-06T02:16:33.829Z,17.40
2023-09-06T02:19:01.753Z,17.40
2023-09-06T02:21:29.587Z,17.40
2023-09-06T02:23:57.991Z,17.30
2023-09-06T02:26:25.773Z,17.30
2023-09-06T02:28:53.554Z,17.30
2023-09-06T02:31:21.451Z,17.20
2023-09-06T02:33:50.730Z,17.20
2023-09-06T02:36:18.516Z,17.10
2023-09-06T02:38:48.295Z,17.10
2023-09-06T02:41:16.288Z,17.00
2023-09-06T02:43:44.060Z,17.00
2023-09-06T02:46:13.427Z,16.90
2023-09-06T02:48:41.979Z,16.90
2023-09-06T02:51:11.370Z,16.90
2023-09-06T02:53:45.216Z,16.90
2023-09-06T02:56:15.091Z,16.90
2023-09-06T02:58:43.952Z,16.80
2023-09-06T03:01:20.395Z,16.80
2023-09-06T03:03:52.336Z,16.70
2023-09-06T03:06:33.348Z,16.70
2023-09-06T03:09:01.428Z,16.60
2023-09-06T03:11:29.174Z,16.60
2023-09-06T03:13:58.242Z,16.50
2023-09-06T03:16:26.145Z,16.50
2023-09-06T03:18:55.188Z,16.40
2023-09-06T03:21:25.217Z,16.40
2023-09-06T03:23:53.862Z,16.30
2023-09-06T03:26:23.931Z,16.30
2023-09-06T03:28:56.113Z,16.20
2023-09-06T03:31:25.962Z,16.20
2023-09-06T03:33:53.815Z,16.20
2023-09-06T03:36:25.904Z,16.10
2023-09-06T03:38:56.440Z,16.10
2023-09-06T03:41:24.216Z,16.10
2023-09-06T03:43:54.321Z,16.10
2023-09-06T03:46:23.350Z,16.10
2023-09-06T03:48:51.234Z,16.00
2023-09-06T03:51:19.944Z,16.00
2023-09-06T03:53:48.803Z,15.90
2023-09-06T03:56:17.959Z,15.90
2023-09-06T03:58:45.811Z,15.90
2023-09-06T04:01:16.621Z,15.90
2023-09-06T04:03:44.844Z,15.80
2023-09-06T04:06:12.941Z,15.80
2023-09-06T04:08:40.891Z,15.80
2023-09-06T04:11:11.718Z,15.80
2023-09-06T04:13:43.779Z,15.80
2023-09-06T04:16:11.687Z,15.80
2023-09-06T04:18:39.628Z,15.80
2023-09-06T04:21:09.862Z,15.70
2023-09-06T04:23:40.191Z,15.70
2023-09-06T04:26:09.050Z,15.70
2023-09-06T04:28:37.012Z,15.60
2023-09-06T04:31:06.791Z,15.60
2023-09-06T04:33:34.594Z,15.60
2023-09-06T04:36:03.830Z,15.60
2023-09-06T04:38:32.389Z,15.60
2023-09-06T04:41:00.734Z,15.50
2023-09-06T04:43:29.169Z,15.50
2023-09-06T04:45:57.194Z,15.40
2023-09-06T04:48:26.569Z,15.40
2023-09-06T04:50:57.575Z,15.40
2023-09-06T04:53:25.488Z,15.30
2023-09-06T04:55:53.837Z,15.30
2023-09-06T04:58:21.890Z,15.20
2023-09-06T05:00:50.393Z,15.20
2023-09-06T05:03:19.902Z,15.20
2023-09-06T05:05:49.784Z,15.20
2023-09-06T05:08:18.019Z,15.20
2023-09-06T05:10:45.907Z,15.10
2023-09-06T05:13:13.680Z,15.10
2023-09-06T05:15:41.961Z,15.20
2023-09-06T05:18:10.054Z,15.20
2023-09-06T05:20:40.188Z,15.20
2023-09-06T05:23:11.017Z,15.20
2023-09-06T05:25:39.232Z,15.20
2023-09-06T05:28:09.359Z,15.20
2023-09-06T05:30:40.028Z,15.30
2023-09-06T05:33:08.633Z,15.30
2023-09-06T05:35:36.490Z,15.30
2023-09-06T05:38:05.198Z,15.40
2023-09-06T05:40:35.553Z,15.40
2023-09-06T05:43:05.042Z,15.40
2023-09-06T05:45:33.041Z,15.50
2023-09-06T05:48:00.893Z,15.50
2023-09-06T05:50:29.092Z,15.60
2023-09-06T05:52:56.957Z,15.60
2023-09-06T05:55:24.943Z,15.60
2023-09-06T05:57:54.162Z,15.70
2023-09-06T06:00:22.555Z,15.70
2023-09-06T06:02:51.275Z,15.80
2023-09-06T06:05:20.204Z,15.90
2023-09-06T06:07:48.051Z,16.00
2023-09-06T06:10:15.903Z,16.00
2023-09-06T06:12:44.361Z,16.10
2023-09-06T06:15:14.547Z,16.10
2023-09-06T06:17:42.811Z,16.20
2023-09-06T06:20:12.386Z,16.20
2023-09-06T06:22:41.208Z,16.30
2023-09-06T06:25:11.255Z,16.40
2023-09-06T06:27:39.865Z,16.40
2023-09-06T06:30:09.517Z,16.50
